Time;durP1;ratioP1;P1;durP2;ratioP2;P2;SDS_P1;SDS_P2;PMS_P1;PMS_P2;Temp;Humidity;BMP_temperature;BMP_pressure;BME280_temperature;BME280_humidity;BME280_pressure;Samples;Min_cycle;Max_cycle;Signal;HPM_P1;HPM_P2
2023/08/22 00:01:22;;;;;;;3.10;2.90;;;;;;;;;;4977336;28;20026;-79
2023/08/22 00:03:48;;;;;;;3.75;3.45;;;;;;;;;;4977641;28;20069;-79
2023/08/22 00:06:14;;;;;;;4.30;3.72;;;;;;;;;;4977727;28;20023;-81
2023/08/22 00:08:40;;;;;;;4.22;3.92;;;;;;;;;;4984556;28;20023;-79
2023/08/22 00:11:06;;;;;;;3.92;3.63;;;;;;;;;;4983989;28;20031;-79
2023/08/22 00:13:32;;;;;;;4.35;3.80;;;;;;;;;;4982332;28;20040;-78
2023/08/22 00:16:03;;;;;;;4.32;3.92;;;;;;;;;;4987640;28;20093;-79
2023/08/22 00:18:29;;;;;;;4.10;3.80;;;;;;;;;;4978878;28;20075;-78
2023/08/22 00:20:55;;;;;;;4.47;4.07;;;;;;;;;;4978651;28;20058;-80
2023/08/22 00:23:21;;;;;;;4.72;4.32;;;;;;;;;;4980573;28;20015;-78
2023/08/22 00:25:47;;;;;;;4.57;4.25;;;;;;;;;;4983387;28;20494;-77
2023/08/22 00:28:14;;;;;;;4.47;4.13;;;;;;;;;;4981057;28;20053;-78
2023/08/22 00:30:40;;;;;;;4.63;4.32;;;;;;;;;;4980468;28;20027;-79
2023/08/22 00:33:07;;;;;;;5.10;4.70;;;;;;;;;;4965637;28;20041;-78
2023/08/22 00:35:33;;;;;;;4.82;4.43;;;;;;;;;;4982184;28;20026;-78
2023/08/22 00:37:59;;;;;;;4.45;4.15;;;;;;;;;;4977164;28;20031;-79
2023/08/22 00:40:25;;;;;;;4.47;4.18;;;;;;;;;;4975698;28;20022;-79
2023/08/22 00:42:51;;;;;;;3.92;3.63;;;;;;;;;;4975654;28;20039;-80
2023/08/22 00:45:17;;;;;;;4.10;3.80;;;;;;;;;;4977354;28;20023;-79
2023/08/22 00:47:43;;;;;;;4.20;3.90;;;;;;;;;;4980503;28;20038;-80
2023/08/22 00:50:10;;;;;;;4.13;3.83;;;;;;;;;;4963262;28;20055;-78
2023/08/22 00:52:36;;;;;;;4.00;3.70;;;;;;;;;;4960252;28;20018;-79
2023/08/22 00:55:02;;;;;;;3.85;3.55;;;;;;;;;;4975626;28;20133;-79
2023/08/22 00:57:29;;;;;;;3.95;3.65;;;;;;;;;;4983201;28;20031;-79
2023/08/22 00:59:56;;;;;;;3.65;3.38;;;;;;;;;;4976058;28;20035;-80
2023/08/22 01:02:22;;;;;;;3.50;3.20;;;;;;;;;;4976112;28;20031;-79
2023/08/22 01:04:48;;;;;;;3.35;3.10;;;;;;;;;;4976819;28;20026;-77
2023/08/22 01:07:21;;;;;;;3.78;3.53;;;;;;;;;;4976192;28;20126;-77
2023/08/22 01:10:07;;;;;;;3.30;3.10;;;;;;;;;;4967364;28;20034;-79
2023/08/22 01:12:48;;;;;;;3.30;3.10;;;;;;;;;;4965590;28;20067;-78
2023/08/22 01:15:34;;;;;;;3.10;2.90;;;;;;;;;;4970571;28;20490;-78
2023/08/22 01:18:04;;;;;;;3.03;2.83;;;;;;;;;;4961482;28;20041;-79
2023/08/22 01:20:30;;;;;;;3.10;2.90;;;;;;;;;;4964129;28;20560;-78
2023/08/22 01:22:57;;;;;;;3.33;3.13;;;;;;;;;;4974890;28;20018;-79
2023/08/22 01:25:24;;;;;;;3.65;3.35;;;;;;;;;;4975817;28;20050;-80
2023/08/22 01:28:09;;;;;;;2.58;2.47;;;;;;;;;;4976768;28;20568;-78
2023/08/22 01:30:35;;;;;;;2.97;2.78;;;;;;;;;;4976269;28;20218;-79
2023/08/22 01:33:07;;;;;;;3.15;2.95;;;;;;;;;;4977586;28;20034;-78
2023/08/22 01:35:34;;;;;;;3.15;2.95;;;;;;;;;;4967294;28;20028;-78
2023/08/22 01:38:01;;;;;;;2.95;2.75;;;;;;;;;;4982901;28;20410;-79
2023/08/22 01:40:28;;;;;;;3.20;3.00;;;;;;;;;;4974419;28;20023;-79
2023/08/22 01:42:56;;;;;;;2.60;2.40;;;;;;;;;;4977110;28;20018;-80
2023/08/22 01:45:22;;;;;;;3.08;2.88;;;;;;;;;;4985815;28;20042;-80
2023/08/22 01:47:48;;;;;;;3.00;2.80;;;;;;;;;;4977377;28;20043;-79
2023/08/22 01:50:14;;;;;;;2.63;2.53;;;;;;;;;;4966117;28;20027;-80
2023/08/22 01:52:40;;;;;;;2.70;2.55;;;;;;;;;;4993010;28;20050;-80
2023/08/22 01:55:07;;;;;;;3.10;2.90;;;;;;;;;;4997957;28;20026;-80
2023/08/22 01:57:33;;;;;;;2.88;2.67;;;;;;;;;;4980880;28;20098;-79
2023/08/22 01:59:59;;;;;;;2.95;2.75;;;;;;;;;;4981974;28;20030;-80
2023/08/22 02:02:25;;;;;;;3.50;3.20;;;;;;;;;;4976052;28;20095;-79
2023/08/22 02:04:51;;;;;;;3.35;3.05;;;;;;;;;;4973364;28;20434;-79
2023/08/22 02:07:17;;;;;;;3.00;2.80;;;;;;;;;;4965966;28;20015;-80
2023/08/22 02:09:43;;;;;;;3.17;2.97;;;;;;;;;;4977178;28;20127;-79
2023/08/22 02:12:09;;;;;;;3.28;3.08;;;;;;;;;;4977711;28;20038;-80
2023/08/22 02:14:35;;;;;;;3.17;2.97;;;;;;;;;;4966584;28;20046;-80
2023/08/22 02:17:01;;;;;;;3.20;3.00;;;;;;;;;;4968235;28;20031;-80
2023/08/22 02:19:27;;;;;;;3.47;3.28;;;;;;;;;;4978187;28;20023;-80
2023/08/22 02:21:53;;;;;;;3.42;3.22;;;;;;;;;;4978714;28;20070;-80
2023/08/22 02:24:19;;;;;;;3.25;3.05;;;;;;;;;;4978548;28;20015;-80
2023/08/22 02:26:47;;;;;;;3.95;3.65;;;;;;;;;;4978819;28;20260;-80
2023/08/22 02:29:13;;;;;;;4.00;3.70;;;;;;;;;;4987477;28;20025;-79
2023/08/22 02:31:39;;;;;;;3.92;3.63;;;;;;;;;;4976713;28;20019;-79
2023/08/22 02:34:05;;;;;;;4.18;3.88;;;;;;;;;;4978592;28;20079;-79
2023/08/22 02:36:31;;;;;;;4.00;3.67;;;;;;;;;;4960070;28;20041;-80
2023/08/22 02:38:57;;;;;;;3.60;3.35;;;;;;;;;;4977562;28;20046;-79
2023/08/22 02:41:23;;;;;;;4.05;3.75;;;;;;;;;;4977534;28;20562;-79
2023/08/22 02:43:49;;;;;;;3.90;3.35;;;;;;;;;;4976739;28;20078;-79
2023/08/22 02:46:15;;;;;;;4.38;3.97;;;;;;;;;;4966738;28;20027;-79
2023/08/22 02:48:42;;;;;;;4.00;3.70;;;;;;;;;;4966744;28;20015;-80
2023/08/22 02:51:08;;;;;;;4.10;3.80;;;;;;;;;;4981434;28;20019;-80
2023/08/22 02:53:34;;;;;;;4.13;3.83;;;;;;;;;;4978779;28;20027;-80
2023/08/22 02:56:00;;;;;;;4.10;3.80;;;;;;;;;;4980112;28;20026;-78
2023/08/22 02:58:27;;;;;;;3.88;3.65;;;;;;;;;;4980178;28;20027;-80
2023/08/22 03:00:53;;;;;;;3.63;3.33;;;;;;;;;;4980064;28;20041;-80
2023/08/22 03:03:19;;;;;;;3.90;3.60;;;;;;;;;;4980513;28;20125;-79
2023/08/22 03:05:45;;;;;;;3.75;3.42;;;;;;;;;;4968337;28;20054;-79
2023/08/22 03:08:11;;;;;;;3.65;3.42;;;;;;;;;;4970137;28;20486;-80
2023/08/22 03:10:38;;;;;;;4.20;3.90;;;;;;;;;;4979539;28;20019;-80
2023/08/22 03:13:04;;;;;;;3.67;3.45;;;;;;;;;;4980827;28;20050;-79
2023/08/22 03:15:30;;;;;;;3.78;3.47;;;;;;;;;;4978071;28;20035;-79
2023/08/22 03:17:56;;;;;;;3.22;2.97;;;;;;;;;;4978575;28;20447;-79
2023/08/22 03:20:22;;;;;;;3.65;3.45;;;;;;;;;;4977683;28;20624;-80
2023/08/22 03:22:48;;;;;;;3.72;3.42;;;;;;;;;;4961979;28;20027;-77
2023/08/22 03:25:15;;;;;;;3.45;3.25;;;;;;;;;;4979112;28;20031;-79
2023/08/22 03:27:41;;;;;;;3.83;3.58;;;;;;;;;;4958837;28;20033;-80
2023/08/22 03:30:07;;;;;;;3.47;3.28;;;;;;;;;;4967712;28;20018;-78
2023/08/22 03:32:33;;;;;;;3.88;3.40;;;;;;;;;;4978379;28;20038;-79
2023/08/22 03:34:59;;;;;;;3.75;3.45;;;;;;;;;;4984687;28;20026;-80
2023/08/22 03:37:25;;;;;;;3.10;2.90;;;;;;;;;;4978457;28;20049;-79
2023/08/22 03:39:51;;;;;;;3.30;3.10;;;;;;;;;;4978183;28;20501;-79
2023/08/22 03:42:17;;;;;;;3.30;3.10;;;;;;;;;;4966738;28;20042;-76
2023/08/22 03:44:44;;;;;;;3.40;3.20;;;;;;;;;;4956047;28;20019;-77
2023/08/22 03:47:10;;;;;;;3.97;3.67;;;;;;;;;;4979877;28;20018;-77
2023/08/22 03:49:36;;;;;;;3.08;2.88;;;;;;;;;;4961797;28;20034;-77
2023/08/22 03:52:02;;;;;;;3.05;2.85;;;;;;;;;;4978271;28;20038;-77
2023/08/22 03:54:28;;;;;;;3.42;3.13;;;;;;;;;;4956871;28;20419;-76
2023/08/22 03:56:54;;;;;;;3.20;3.00;;;;;;;;;;4955581;28;20031;-79
2023/08/22 03:59:20;;;;;;;3.55;3.25;;;;;;;;;;4973665;28;20031;-79
2023/08/22 04:01:46;;;;;;;3.33;3.13;;;;;;;;;;4983525;28;20031;-80
2023/08/22 04:04:14;;;;;;;3.38;3.17;;;;;;;;;;4987561;28;20051;-80
2023/08/22 04:06:41;;;;;;;2.97;2.70;;;;;;;;;;4963310;28;20031;-78
2023/08/22 04:09:07;;;;;;;2.85;2.65;;;;;;;;;;4977976;28;20029;-77
2023/08/22 04:11:33;;;;;;;2.92;2.72;;;;;;;;;;4977209;28;20034;-78
2023/08/22 04:13:59;;;;;;;2.88;2.67;;;;;;;;;;4971812;28;20438;-78
2023/08/22 04:16:25;;;;;;;2.58;2.38;;;;;;;;;;4972766;28;20031;-78
2023/08/22 04:18:51;;;;;;;3.22;3.03;;;;;;;;;;4985202;28;20028;-77
2023/08/22 04:21:17;;;;;;;2.30;2.20;;;;;;;;;;4977411;28;20031;-78
2023/08/22 04:23:43;;;;;;;2.53;2.33;;;;;;;;;;4983938;28;20025;-78
2023/08/22 04:26:09;;;;;;;2.70;2.60;;;;;;;;;;4979792;28;20172;-78
2023/08/22 04:28:36;;;;;;;2.53;2.42;;;;;;;;;;4976691;28;20054;-77
2023/08/22 04:31:03;;;;;;;2.17;2.08;;;;;;;;;;4975366;28;20077;-78
2023/08/22 04:33:29;;;;;;;2.63;2.50;;;;;;;;;;4975976;28;20101;-77
2023/08/22 04:35:55;;;;;;;2.38;2.28;;;;;;;;;;4959334;28;20087;-78
2023/08/22 04:38:21;;;;;;;2.95;2.75;;;;;;;;;;4982451;28;20023;-78
2023/08/22 04:40:47;;;;;;;2.20;2.10;;;;;;;;;;4977843;28;20037;-78
2023/08/22 04:43:13;;;;;;;2.17;2.08;;;;;;;;;;4979084;28;20069;-76
2023/08/22 04:45:39;;;;;;;2.30;2.20;;;;;;;;;;4981304;28;20046;-77
2023/08/22 04:48:05;;;;;;;2.30;2.20;;;;;;;;;;4976968;28;20031;-77
2023/08/22 04:50:31;;;;;;;2.67;2.47;;;;;;;;;;4979116;28;20098;-77
2023/08/22 04:52:58;;;;;;;2.53;2.33;;;;;;;;;;4976285;28;20027;-77
2023/08/22 04:55:24;;;;;;;2.33;2.22;;;;;;;;;;4977252;28;20026;-77
2023/08/22 04:57:50;;;;;;;2.40;2.20;;;;;;;;;;4995741;28;20050;-78
2023/08/22 05:00:16;;;;;;;3.38;3.08;;;;;;;;;;4977856;28;20041;-79
2023/08/22 05:02:42;;;;;;;2.75;2.63;;;;;;;;;;4992773;28;20034;-77
2023/08/22 05:05:12;;;;;;;3.15;2.95;;;;;;;;;;4975125;28;20038;-78
2023/08/22 05:07:38;;;;;;;3.03;2.83;;;;;;;;;;4974436;28;20397;-78
2023/08/22 05:10:04;;;;;;;2.85;2.65;;;;;;;;;;4974803;28;20019;-78
2023/08/22 05:12:30;;;;;;;3.20;3.00;;;;;;;;;;4976913;28;20027;-78
2023/08/22 05:14:57;;;;;;;3.13;2.92;;;;;;;;;;4978406;28;20057;-78
2023/08/22 05:17:23;;;;;;;3.15;2.95;;;;;;;;;;4979468;28;20067;-78
2023/08/22 05:19:49;;;;;;;2.92;2.72;;;;;;;;;;4978064;28;20039;-78
2023/08/22 05:22:15;;;;;;;3.38;3.10;;;;;;;;;;4978073;28;20085;-78
2023/08/22 05:24:41;;;;;;;3.17;2.97;;;;;;;;;;4990947;28;20015;-77
2023/08/22 05:27:08;;;;;;;2.78;2.58;;;;;;;;;;4998049;28;20429;-78
2023/08/22 05:29:37;;;;;;;3.40;3.10;;;;;;;;;;4980122;28;20023;-79
2023/08/22 05:32:03;;;;;;;3.00;2.80;;;;;;;;;;4998148;28;20592;-78
2023/08/22 05:34:29;;;;;;;2.90;2.70;;;;;;;;;;4998797;28;20033;-78
2023/08/22 05:36:55;;;;;;;2.85;2.65;;;;;;;;;;4984867;28;20387;-78
2023/08/22 05:39:23;;;;;;;3.15;2.95;;;;;;;;;;4978662;28;20584;-78
2023/08/22 05:41:49;;;;;;;3.60;3.30;;;;;;;;;;4961461;28;20092;-78
2023/08/22 05:44:15;;;;;;;4.95;3.33;;;;;;;;;;4960267;28;20031;-78
2023/08/22 05:46:42;;;;;;;3.67;3.38;;;;;;;;;;4977931;28;20023;-78
2023/08/22 05:49:08;;;;;;;3.65;3.35;;;;;;;;;;4976202;28;20026;-77
2023/08/22 05:51:34;;;;;;;3.30;3.10;;;;;;;;;;4978872;28;20030;-78
2023/08/22 05:54:00;;;;;;;3.35;3.05;;;;;;;;;;4988056;28;20037;-78
2023/08/22 05:56:26;;;;;;;3.35;3.13;;;;;;;;;;4980419;28;20114;-78
2023/08/22 05:58:52;;;;;;;3.30;3.10;;;;;;;;;;4998456;28;20033;-77
2023/08/22 06:01:18;;;;;;;3.42;3.22;;;;;;;;;;4996226;28;20084;-79
2023/08/22 06:03:44;;;;;;;3.72;3.42;;;;;;;;;;4999147;28;20029;-78
2023/08/22 06:06:10;;;;;;;3.67;3.30;;;;;;;;;;4980007;28;20385;-77
2023/08/22 06:08:36;;;;;;;3.40;3.20;;;;;;;;;;4993828;28;20477;-78
2023/08/22 06:11:02;;;;;;;3.65;3.35;;;;;;;;;;4962127;28;20027;-78
2023/08/22 06:13:28;;;;;;;3.00;2.80;;;;;;;;;;4977932;28;20027;-78
2023/08/22 06:15:57;;;;;;;3.40;3.20;;;;;;;;;;4978027;28;20401;-78
2023/08/22 06:18:23;;;;;;;3.58;3.38;;;;;;;;;;4959664;28;20027;-78
2023/08/22 06:20:49;;;;;;;4.53;3.95;;;;;;;;;;4975842;28;20078;-79
2023/08/22 06:23:15;;;;;;;3.95;3.60;;;;;;;;;;4978978;28;20082;-78
2023/08/22 06:25:41;;;;;;;4.10;3.80;;;;;;;;;;4991153;28;20026;-79
2023/08/22 06:28:07;;;;;;;4.28;3.97;;;;;;;;;;4999565;28;20022;-79
2023/08/22 06:30:33;;;;;;;4.35;4.00;;;;;;;;;;4997740;28;20022;-79
2023/08/22 06:32:59;;;;;;;4.68;4.28;;;;;;;;;;4999648;28;20078;-79
2023/08/22 06:35:28;;;;;;;4.00;3.70;;;;;;;;;;4998760;28;20057;-78
2023/08/22 06:37:54;;;;;;;3.58;3.28;;;;;;;;;;4997617;28;20349;-78
2023/08/22 06:40:22;;;;;;;3.47;3.28;;;;;;;;;;4997438;28;20031;-77
2023/08/22 06:42:48;;;;;;;3.25;3.05;;;;;;;;;;4981406;28;20085;-78
2023/08/22 06:45:14;;;;;;;3.00;2.80;;;;;;;;;;4977076;28;20030;-78
2023/08/22 06:47:41;;;;;;;4.40;3.58;;;;;;;;;;4979296;28;20031;-79
2023/08/22 06:50:07;;;;;;;4.25;3.95;;;;;;;;;;4980168;28;20110;-79
2023/08/22 06:52:34;;;;;;;3.85;3.63;;;;;;;;;;4977576;28;20031;-78
2023/08/22 06:55:00;;;;;;;5.05;4.65;;;;;;;;;;4994230;28;20026;-78
2023/08/22 06:57:26;;;;;;;4.85;4.55;;;;;;;;;;4977784;28;20062;-78
2023/08/22 06:59:53;;;;;;;5.20;4.80;;;;;;;;;;4960203;28;20085;-79
2023/08/22 07:02:19;;;;;;;5.45;4.95;;;;;;;;;;4977711;28;20027;-78
2023/08/22 07:04:45;;;;;;;6.60;6.00;;;;;;;;;;4977695;28;20022;-78
2023/08/22 07:07:12;;;;;;;9.30;6.78;;;;;;;;;;4980472;28;20033;-77
2023/08/22 07:09:38;;;;;;;7.22;6.47;;;;;;;;;;4979980;28;20027;-78
2023/08/22 07:12:04;;;;;;;8.25;6.78;;;;;;;;;;4981249;28;20390;-77
2023/08/22 07:14:30;;;;;;;6.38;5.78;;;;;;;;;;4978549;28;20037;-78
2023/08/22 07:16:56;;;;;;;9.70;6.85;;;;;;;;;;4961008;28;20204;-77
2023/08/22 07:19:22;;;;;;;7.93;7.13;;;;;;;;;;4931714;28;1343746;-78
2023/08/22 07:21:48;;;;;;;8.68;7.35;;;;;;;;;;4961818;28;20482;-78
2023/08/22 07:24:15;;;;;;;8.55;6.63;;;;;;;;;;4989608;28;20107;-79
2023/08/22 07:26:41;;;;;;;9.63;7.28;;;;;;;;;;4983285;28;20029;-78
2023/08/22 07:29:07;;;;;;;9.00;7.10;;;;;;;;;;5002322;28;20022;-78
2023/08/22 07:31:33;;;;;;;8.43;7.07;;;;;;;;;;4978328;28;20030;-78
2023/08/22 07:33:59;;;;;;;9.43;7.40;;;;;;;;;;4964768;28;20030;-78
2023/08/22 07:36:25;;;;;;;9.05;7.25;;;;;;;;;;4967169;28;20054;-77
2023/08/22 07:38:51;;;;;;;8.18;7.32;;;;;;;;;;4989058;28;20467;-77
2023/08/22 07:41:17;;;;;;;7.85;7.15;;;;;;;;;;4982034;28;20406;-77
2023/08/22 07:43:43;;;;;;;9.30;7.32;;;;;;;;;;4982540;28;20101;-78
2023/08/22 07:46:10;;;;;;;9.13;7.40;;;;;;;;;;4980517;28;20034;-77
2023/08/22 07:48:36;;;;;;;7.70;6.93;;;;;;;;;;4979989;28;20110;-79
2023/08/22 07:51:02;;;;;;;7.10;6.40;;;;;;;;;;4980582;28;20062;-79
2023/08/22 07:53:30;;;;;;;7.30;6.65;;;;;;;;;;4984234;28;20027;-78
2023/08/22 07:55:56;;;;;;;11.55;6.88;;;;;;;;;;4998974;28;20018;-78
2023/08/22 07:58:23;;;;;;;10.27;7.65;;;;;;;;;;5000751;28;20018;-78
2023/08/22 08:00:49;;;;;;;7.85;7.10;;;;;;;;;;4999405;28;20026;-78
2023/08/22 08:03:15;;;;;;;8.88;7.72;;;;;;;;;;4996671;28;20093;-78
2023/08/22 08:05:41;;;;;;;8.38;6.97;;;;;;;;;;4981627;28;20031;-78
2023/08/22 08:08:08;;;;;;;9.77;7.20;;;;;;;;;;4981168;28;20019;-79
2023/08/22 08:10:36;;;;;;;8.48;7.57;;;;;;;;;;4980043;28;20137;-78
2023/08/22 08:13:02;;;;;;;7.45;6.75;;;;;;;;;;4980641;28;20034;-77
2023/08/22 08:15:28;;;;;;;10.07;7.13;;;;;;;;;;4978841;28;20033;-77
2023/08/22 08:17:55;;;;;;;10.00;7.18;;;;;;;;;;4978697;28;20026;-78
2023/08/22 08:20:21;;;;;;;8.93;7.38;;;;;;;;;;4961048;28;20049;-78
2023/08/22 08:22:47;;;;;;;8.68;7.22;;;;;;;;;;4979734;28;20027;-78
2023/08/22 08:25:14;;;;;;;8.98;7.55;;;;;;;;;;4988424;28;20105;-78
2023/08/22 08:27:40;;;;;;;8.68;7.72;;;;;;;;;;4979810;28;20123;-78
2023/08/22 08:30:06;;;;;;;8.32;7.53;;;;;;;;;;4961880;28;20081;-78
2023/08/22 08:32:33;;;;;;;9.30;7.60;;;;;;;;;;4979640;28;20069;-78
2023/08/22 08:34:59;;;;;;;7.78;7.07;;;;;;;;;;4979204;28;20027;-79
2023/08/22 08:37:25;;;;;;;8.18;7.45;;;;;;;;;;4979066;28;20022;-79
2023/08/22 08:39:51;;;;;;;7.85;7.15;;;;;;;;;;4961076;28;20035;-78
2023/08/22 08:42:17;;;;;;;8.75;6.72;;;;;;;;;;4978982;28;20426;-78
2023/08/22 08:44:43;;;;;;;8.23;7.43;;;;;;;;;;4979087;28;20541;-78
2023/08/22 08:47:10;;;;;;;7.47;6.82;;;;;;;;;;4979440;28;20037;-78
2023/08/22 08:49:36;;;;;;;8.10;6.90;;;;;;;;;;4961432;28;20073;-78
2023/08/22 08:52:04;;;;;;;8.07;6.78;;;;;;;;;;4961703;28;20027;-78
2023/08/22 08:54:30;;;;;;;7.57;6.80;;;;;;;;;;4986110;28;20395;-78
2023/08/22 08:56:57;;;;;;;7.70;7.10;;;;;;;;;;4975491;28;20315;-77
2023/08/22 08:59:23;;;;;;;7.22;6.63;;;;;;;;;;4980457;28;20034;-78
2023/08/22 09:01:55;;;;;;;7.60;6.72;;;;;;;;;;4997384;28;20441;-78
2023/08/22 09:04:22;;;;;;;7.47;6.80;;;;;;;;;;4987172;28;20382;-78
2023/08/22 09:06:49;;;;;;;9.73;7.47;;;;;;;;;;4962388;28;20042;-78
2023/08/22 09:09:16;;;;;;;7.97;7.25;;;;;;;;;;4979620;28;20029;-79
2023/08/22 09:11:46;;;;;;;7.85;7.15;;;;;;;;;;4980029;28;20037;-78
2023/08/22 09:14:13;;;;;;;7.82;7.03;;;;;;;;;;4979486;28;20052;-78
2023/08/22 09:16:39;;;;;;;7.50;6.78;;;;;;;;;;4980008;28;20055;-78
2023/08/22 09:19:07;;;;;;;7.97;7.20;;;;;;;;;;4962257;28;20027;-78
2023/08/22 09:21:33;;;;;;;8.32;7.25;;;;;;;;;;4979593;28;20031;-78
2023/08/22 09:24:08;;;;;;;9.73;7.13;;;;;;;;;;4985267;28;20025;-78
2023/08/22 09:26:34;;;;;;;8.35;7.53;;;;;;;;;;4996815;28;20019;-77
2023/08/22 09:29:04;;;;;;;7.72;7.03;;;;;;;;;;4997821;28;20029;-79
2023/08/22 09:31:32;;;;;;;7.85;7.20;;;;;;;;;;4980587;28;20430;-78
2023/08/22 09:33:58;;;;;;;7.85;7.10;;;;;;;;;;4977548;28;20129;-78
2023/08/22 09:36:24;;;;;;;8.25;7.50;;;;;;;;;;4978718;28;20018;-78
2023/08/22 09:38:55;;;;;;;7.28;6.68;;;;;;;;;;4978872;28;20035;-77
2023/08/22 09:41:25;;;;;;;8.63;7.32;;;;;;;;;;4984812;28;20027;-78
2023/08/22 09:43:55;;;;;;;6.93;6.43;;;;;;;;;;4981110;28;20651;-78
2023/08/22 09:46:21;;;;;;;7.53;6.93;;;;;;;;;;4964525;28;20026;-78
2023/08/22 09:48:51;;;;;;;7.28;6.57;;;;;;;;;;4979507;28;20030;-78
2023/08/22 09:51:21;;;;;;;7.95;7.25;;;;;;;;;;4979478;28;20037;-79
2023/08/22 09:53:50;;;;;;;8.82;7.03;;;;;;;;;;4968715;28;20541;-77
2023/08/22 09:56:18;;;;;;;8.73;7.20;;;;;;;;;;4999082;28;20416;-78
2023/08/22 09:58:44;;;;;;;7.45;6.72;;;;;;;;;;4981508;28;20104;-79
2023/08/22 10:01:12;;;;;;;7.88;6.80;;;;;;;;;;5003473;28;20117;-79
2023/08/22 10:03:38;;;;;;;7.90;7.03;;;;;;;;;;4977914;28;20034;-79
2023/08/22 10:06:04;;;;;;;9.98;7.78;;;;;;;;;;4988576;28;20042;-79
2023/08/22 10:08:31;;;;;;;7.40;6.80;;;;;;;;;;4982124;28;20089;-78
2023/08/22 10:10:58;;;;;;;7.13;6.53;;;;;;;;;;4965692;28;20486;-78
2023/08/22 10:13:24;;;;;;;7.25;6.55;;;;;;;;;;4983540;28;20074;-79
2023/08/22 10:15:51;;;;;;;8.70;7.13;;;;;;;;;;4967869;28;20519;-78
2023/08/22 10:18:17;;;;;;;7.63;6.18;;;;;;;;;;4983641;28;20110;-78
2023/08/22 10:20:43;;;;;;;8.63;6.72;;;;;;;;;;4985164;28;20034;-79
2023/08/22 10:23:09;;;;;;;7.13;6.43;;;;;;;;;;4991111;28;20102;-78
2023/08/22 10:25:49;;;;;;;7.68;6.97;;;;;;;;;;4995733;28;20019;-78
2023/08/22 10:28:15;;;;;;;7.75;6.97;;;;;;;;;;5004721;28;20026;-78
2023/08/22 10:31:01;;;;;;;7.63;6.82;;;;;;;;;;5009647;28;20029;-78
2023/08/22 10:33:28;;;;;;;9.73;5.60;;;;;;;;;;4987726;28;20106;-78
2023/08/22 10:36:08;;;;;;;8.55;6.40;;;;;;;;;;4985211;28;20019;-77
2023/08/22 10:38:56;;;;;;;6.45;5.95;;;;;;;;;;4986296;28;20030;-78
2023/08/22 10:41:42;;;;;;;7.07;6.30;;;;;;;;;;4989767;28;20027;-77
2023/08/22 10:44:15;;;;;;;6.22;5.57;;;;;;;;;;4992339;28;20039;-77
2023/08/22 10:47:00;;;;;;;7.93;6.40;;;;;;;;;;4972577;28;20026;-78
2023/08/22 10:49:33;;;;;;;8.32;6.75;;;;;;;;;;4990374;28;20046;-77
2023/08/22 10:52:00;;;;;;;7.82;6.30;;;;;;;;;;4989244;28;20022;-79
2023/08/22 10:54:26;;;;;;;6.95;6.35;;;;;;;;;;4999420;28;20034;-77
2023/08/22 10:57:12;;;;;;;6.80;6.30;;;;;;;;;;5000659;28;20067;-79
2023/08/22 10:59:54;;;;;;;6.75;6.05;;;;;;;;;;4981820;28;20026;-78
2023/08/22 11:02:20;;;;;;;;;;;;;;;;;;5000841;28;20050;-79
2023/08/22 11:04:46;;;;;;;6.90;6.18;;;;;;;;;;5002097;28;19993;-78
2023/08/22 11:07:12;;;;;;;7.03;6.07;;;;;;;;;;5001778;28;20398;-79
2023/08/22 11:09:39;;;;;;;6.97;6.38;;;;;;;;;;5000739;28;20093;-78
2023/08/22 11:12:17;;;;;;;6.10;5.47;;;;;;;;;;4982821;28;20065;-78
2023/08/22 11:14:46;;;;;;;8.57;6.13;;;;;;;;;;4999698;28;20421;-78
2023/08/22 11:17:16;;;;;;;6.80;5.88;;;;;;;;;;4982103;28;20482;-78
2023/08/22 11:19:43;;;;;;;6.68;6.00;;;;;;;;;;4999755;28;20030;-78
2023/08/22 11:22:10;;;;;;;6.70;5.93;;;;;;;;;;4989769;28;20019;-79
2023/08/22 11:24:36;;;;;;;6.57;5.97;;;;;;;;;;4983962;28;20031;-79
2023/08/22 11:27:06;;;;;;;6.40;5.90;;;;;;;;;;4999030;28;20065;-78
2023/08/22 11:29:45;;;;;;;7.00;6.35;;;;;;;;;;4986528;28;20489;-79
2023/08/22 11:32:24;;;;;;;10.30;6.18;;;;;;;;;;4983943;28;20440;-78
2023/08/22 11:34:50;;;;;;;6.43;5.93;;;;;;;;;;4983169;28;20065;-78
2023/08/22 11:37:17;;;;;;;8.00;5.60;;;;;;;;;;5001031;28;20092;-78
2023/08/22 11:39:53;;;;;;;6.65;6.10;;;;;;;;;;5001903;28;20030;-78
2023/08/22 11:42:20;;;;;;;9.68;6.50;;;;;;;;;;5002739;28;20640;-79
2023/08/22 11:44:59;;;;;;;9.52;6.32;;;;;;;;;;5001749;28;20041;-79
2023/08/22 11:47:35;;;;;;;6.90;5.97;;;;;;;;;;5002034;28;20508;-78
2023/08/22 11:50:02;;;;;;;6.50;5.72;;;;;;;;;;4983829;28;20029;-77
2023/08/22 11:52:29;;;;;;;6.45;5.90;;;;;;;;;;5000563;28;20037;-78
2023/08/22 11:55:08;;;;;;;6.63;6.22;;;;;;;;;;4991794;28;20382;-78
2023/08/22 11:57:41;;;;;;;6.53;6.03;;;;;;;;;;4982533;28;20134;-79
2023/08/22 12:00:08;;;;;;;6.78;5.95;;;;;;;;;;4982823;28;20034;-79
2023/08/22 12:02:34;;;;;;;7.03;6.03;;;;;;;;;;4982019;28;20076;-79
2023/08/22 12:05:01;;;;;;;5.85;5.35;;;;;;;;;;5000456;28;20477;-79
2023/08/22 12:07:27;;;;;;;8.82;5.88;;;;;;;;;;5001160;28;20038;-79
2023/08/22 12:09:59;;;;;;;7.15;6.55;;;;;;;;;;5001516;28;20027;-78
2023/08/22 12:12:25;;;;;;;6.10;5.60;;;;;;;;;;4983109;28;20041;-78
2023/08/22 12:14:51;;;;;;;7.30;5.95;;;;;;;;;;4981574;28;20478;-79
2023/08/22 12:17:18;;;;;;;7.35;6.13;;;;;;;;;;4983532;28;20027;-80
2023/08/22 12:19:44;;;;;;;6.75;6.15;;;;;;;;;;4963672;28;20026;-78
2023/08/22 12:22:11;;;;;;;6.43;5.93;;;;;;;;;;4963096;28;20560;-78
2023/08/22 12:24:37;;;;;;;8.48;6.22;;;;;;;;;;4964584;28;20023;-79
2023/08/22 12:27:03;;;;;;;8.50;6.47;;;;;;;;;;4978649;28;20042;-79
2023/08/22 12:29:29;;;;;;;6.13;5.32;;;;;;;;;;4980007;28;20019;-78
2023/08/22 12:31:55;;;;;;;7.00;6.40;;;;;;;;;;4980376;28;20045;-79
2023/08/22 12:34:22;;;;;;;6.90;6.25;;;;;;;;;;4981269;28;20508;-79
2023/08/22 12:36:48;;;;;;;6.38;5.88;;;;;;;;;;4962593;28;20053;-79
2023/08/22 12:39:14;;;;;;;6.80;6.22;;;;;;;;;;4968512;28;20026;-78
2023/08/22 12:41:40;;;;;;;7.38;6.57;;;;;;;;;;4989857;28;20081;-78
2023/08/22 12:44:06;;;;;;;6.53;5.90;;;;;;;;;;4978324;28;20514;-80
2023/08/22 12:46:32;;;;;;;6.93;6.32;;;;;;;;;;4978633;28;20483;-78
2023/08/22 12:48:59;;;;;;;6.88;6.38;;;;;;;;;;4977450;28;20134;-78
2023/08/22 12:51:25;;;;;;;7.32;6.57;;;;;;;;;;4960610;28;20023;-78
2023/08/22 12:53:51;;;;;;;6.22;5.72;;;;;;;;;;4977218;28;20027;-79
2023/08/22 12:56:18;;;;;;;9.52;6.97;;;;;;;;;;4979074;28;20030;-78
2023/08/22 12:58:44;;;;;;;7.50;6.97;;;;;;;;;;4997636;28;20031;-78
2023/08/22 13:01:11;;;;;;;7.80;6.15;;;;;;;;;;4992754;28;20026;-79
2023/08/22 13:03:37;;;;;;;7.65;6.35;;;;;;;;;;4979821;28;20343;-78
2023/08/22 13:06:04;;;;;;;8.15;6.60;;;;;;;;;;4977315;28;20031;-78
2023/08/22 13:08:30;;;;;;;7.47;6.15;;;;;;;;;;4977320;28;20042;-78
2023/08/22 13:10:56;;;;;;;6.90;5.90;;;;;;;;;;4979636;28;20027;-79
2023/08/22 13:13:22;;;;;;;9.20;6.80;;;;;;;;;;4995322;28;20053;-78
2023/08/22 13:15:49;;;;;;;8.75;7.05;;;;;;;;;;4964773;28;20027;-78
2023/08/22 13:18:15;;;;;;;6.72;6.13;;;;;;;;;;4984805;28;20296;-78
2023/08/22 13:20:41;;;;;;;6.88;6.38;;;;;;;;;;4995382;28;20085;-78
2023/08/22 13:23:07;;;;;;;6.97;6.38;;;;;;;;;;4962805;28;20027;-79
2023/08/22 13:25:33;;;;;;;7.03;6.32;;;;;;;;;;4999590;28;20026;-78
2023/08/22 13:27:59;;;;;;;9.20;6.47;;;;;;;;;;4996085;28;20441;-78
2023/08/22 13:30:26;;;;;;;11.35;6.93;;;;;;;;;;4995253;28;20425;-80
2023/08/22 13:32:52;;;;;;;7.18;6.57;;;;;;;;;;4978344;28;20465;-78
2023/08/22 13:35:18;;;;;;;7.00;6.30;;;;;;;;;;4976415;28;20121;-78
2023/08/22 13:37:44;;;;;;;7.40;6.80;;;;;;;;;;4960707;28;20030;-78
2023/08/22 13:40:12;;;;;;;7.32;6.63;;;;;;;;;;4977711;28;20109;-79
2023/08/22 13:42:38;;;;;;;9.45;6.60;;;;;;;;;;4959148;28;20031;-79
2023/08/22 13:45:10;;;;;;;12.55;6.32;;;;;;;;;;4959335;28;20078;-79
2023/08/22 13:47:38;;;;;;;6.95;6.25;;;;;;;;;;4959763;28;20027;-79
2023/08/22 13:50:04;;;;;;;7.60;6.97;;;;;;;;;;4977804;28;20015;-79
2023/08/22 13:52:30;;;;;;;7.82;6.38;;;;;;;;;;4980276;28;20501;-79
2023/08/22 13:54:56;;;;;;;7.20;6.55;;;;;;;;;;5008261;28;20061;-78
2023/08/22 13:57:22;;;;;;;7.55;6.18;;;;;;;;;;5001537;28;20105;-78
2023/08/22 13:59:48;;;;;;;8.00;6.82;;;;;;;;;;4996078;28;20041;-79
2023/08/22 14:02:14;;;;;;;7.65;6.82;;;;;;;;;;4997217;28;20073;-79
2023/08/22 14:04:40;;;;;;;7.47;6.78;;;;;;;;;;4980114;28;20015;-79
2023/08/22 14:07:06;;;;;;;7.40;6.70;;;;;;;;;;4982592;28;20371;-78
2023/08/22 14:09:33;;;;;;;7.57;6.78;;;;;;;;;;4976122;28;20035;-78
2023/08/22 14:11:59;;;;;;;10.38;6.78;;;;;;;;;;4977960;28;20023;-78
2023/08/22 14:14:25;;;;;;;7.78;6.72;;;;;;;;;;4967992;28;20030;-78
2023/08/22 14:16:51;;;;;;;7.72;6.88;;;;;;;;;;4977070;28;20046;-78
2023/08/22 14:19:17;;;;;;;10.23;6.90;;;;;;;;;;4960316;28;20381;-79
2023/08/22 14:21:43;;;;;;;7.50;6.80;;;;;;;;;;4977005;28;20122;-79
2023/08/22 14:24:09;;;;;;;7.78;6.40;;;;;;;;;;4968909;28;20019;-77
2023/08/22 14:26:36;;;;;;;7.40;6.68;;;;;;;;;;4996650;28;20023;-78
2023/08/22 14:29:02;;;;;;;7.22;6.60;;;;;;;;;;4995420;28;20077;-79
2023/08/22 14:31:28;;;;;;;7.13;6.53;;;;;;;;;;4996249;28;20034;-79
2023/08/22 14:33:54;;;;;;;8.60;7.20;;;;;;;;;;4996512;28;20393;-79
2023/08/22 14:36:20;;;;;;;7.72;7.00;;;;;;;;;;4996809;28;20049;-78
2023/08/22 14:38:46;;;;;;;7.28;6.18;;;;;;;;;;4972249;28;20045;-79
2023/08/22 14:41:12;;;;;;;8.15;6.75;;;;;;;;;;4976749;28;20035;-78
2023/08/22 14:43:40;;;;;;;7.03;6.32;;;;;;;;;;4977414;28;20027;-79